Time;durP1;ratioP1;P1;durP2;ratioP2;P2;SDS_P1;SDS_P2;PMS_P1;PMS_P2;Temp;Humidity;BMP_temperature;BMP_pressure;BME280_temperature;BME280_humidity;BME280_pressure;Samples;Min_cycle;Max_cycle;Signal;HPM_P1;HPM_P2
2023/05/05 00:00:32;;;;;;;14.17;10.73;;;9.80;99.90;;;;;;12555224;23;20578;-83
2023/05/05 00:05:35;;;;;;;14.77;9.60;;;9.90;99.90;;;;;;12529731;23;20689;-83
2023/05/05 00:10:37;;;;;;;13.67;6.90;;;10.00;99.90;;;;;;12554789;23;20202;-83
2023/05/05 00:15:42;;;;;;;13.30;6.60;;;10.20;99.90;;;;;;12555379;23;20572;-83
2023/05/05 00:20:46;;;;;;;8.43;6.20;;;10.40;99.90;;;;;;12555301;23;20202;-83
2023/05/05 00:25:48;;;;;;;10.37;6.80;;;10.40;99.90;;;;;;12529159;23;20645;-83
2023/05/05 00:30:51;;;;;;;15.70;6.33;;;10.50;99.90;;;;;;12554802;23;20186;-83
2023/05/05 00:35:54;;;;;;;11.77;5.27;;;10.50;99.90;;;;;;12554867;23;20182;-83
2023/05/05 00:40:56;;;;;;;13.53;6.90;;;10.50;99.90;;;;;;12555172;23;20241;-83
2023/05/05 00:46:25;;;;;;;15.33;7.17;;;10.40;99.90;;;;;;12554877;23;20479;-83
2023/05/05 00:51:27;;;;;;;7.97;5.07;;;10.30;99.90;;;;;;12555565;23;20178;-83
2023/05/05 00:56:30;;;;;;;15.40;6.90;;;10.40;99.90;;;;;;12572666;23;20241;-83
2023/05/05 01:01:33;;;;;;;6.67;4.67;;;10.40;99.90;;;;;;12554607;23;20529;-83
2023/05/05 01:06:52;;;;;;;11.77;5.93;;;10.40;99.90;;;;;;12555169;23;20187;-83
2023/05/05 01:12:07;;;;;;;6.77;4.67;;;10.40;99.90;;;;;;12528632;23;20270;-84
2023/05/05 01:17:16;;;;;;;12.67;6.43;;;10.40;99.90;;;;;;12554514;23;20186;-83
2023/05/05 01:22:24;;;;;;;8.33;5.03;;;10.40;99.90;;;;;;12576111;23;20205;-83
2023/05/05 01:27:38;;;;;;;5.80;4.30;;;10.50;99.90;;;;;;12569923;23;20174;-83
2023/05/05 01:32:47;;;;;;;6.40;3.83;;;10.50;99.90;;;;;;12562836;23;20222;-83
2023/05/05 01:38:13;;;;;;;7.20;4.80;;;10.50;99.90;;;;;;12550569;23;20238;-83
2023/05/05 01:43:19;;;;;;;13.27;5.50;;;10.30;99.90;;;;;;12553569;23;20239;-83
2023/05/05 01:48:23;;;;;;;9.03;6.17;;;10.20;99.90;;;;;;12575090;23;20182;-83
2023/05/05 01:53:26;;;;;;;11.33;5.70;;;10.20;99.90;;;;;;12575168;23;20645;-83
2023/05/05 01:58:31;;;;;;;12.10;5.27;;;10.20;99.90;;;;;;12575550;23;20182;-83
2023/05/05 02:03:36;;;;;;;6.57;3.13;;;10.20;99.90;;;;;;12550241;23;20541;-83
2023/05/05 02:08:41;;;;;;;9.30;4.87;;;10.20;99.90;;;;;;12551407;23;20230;-83
2023/05/05 02:13:44;;;;;;;10.13;5.07;;;10.30;99.90;;;;;;12553359;23;20170;-83
2023/05/05 02:18:52;;;;;;;11.37;5.03;;;10.30;99.90;;;;;;12574744;23;20245;-83
2023/05/05 02:23:55;;;;;;;9.47;4.50;;;10.30;99.90;;;;;;12574506;23;20258;-83
2023/05/05 02:29:02;;;;;;;5.10;3.97;;;10.30;99.90;;;;;;12526384;23;20518;-83
2023/05/05 02:34:06;;;;;;;7.83;4.77;;;10.10;99.90;;;;;;12552217;23;20325;-83
2023/05/05 02:39:17;;;;;;;6.17;4.20;;;10.00;99.90;;;;;;12527443;23;20567;-83
2023/05/05 02:44:23;;;;;;;5.40;3.90;;;9.90;99.90;;;;;;12543759;23;20609;-83
2023/05/05 02:49:26;;;;;;;8.20;4.30;;;9.80;99.90;;;;;;12552369;23;20187;-83
2023/05/05 02:54:33;;;;;;;11.23;4.40;;;9.70;99.90;;;;;;12578643;23;20566;-83
2023/05/05 02:59:55;;;;;;;5.00;4.03;;;9.80;99.90;;;;;;12578100;23;20178;-83
2023/05/05 03:05:07;;;;;;;7.37;5.07;;;9.70;99.90;;;;;;12530539;23;20182;-83
2023/05/05 03:10:20;;;;;;;5.90;4.07;;;9.80;99.90;;;;;;12554813;23;20209;-83
2023/05/05 03:15:44;;;;;;;8.03;4.37;;;9.70;99.90;;;;;;12577607;23;20224;-83
2023/05/05 03:20:50;;;;;;;3.77;3.33;;;9.80;99.90;;;;;;12578630;23;20226;-83
2023/05/05 03:25:53;;;;;;;15.33;4.73;;;9.80;99.90;;;;;;12556855;23;20179;-83
2023/05/05 03:31:06;;;;;;;5.20;3.53;;;9.80;99.90;;;;;;12553747;23;20533;-83
2023/05/05 03:36:11;;;;;;;7.27;3.83;;;9.70;99.90;;;;;;12553516;23;20183;-83
2023/05/05 03:41:14;;;;;;;8.23;3.87;;;9.70;99.90;;;;;;12555425;23;20282;-83
2023/05/05 03:46:17;;;;;;;14.67;4.13;;;9.70;99.90;;;;;;12576671;23;20215;-83
2023/05/05 03:51:20;;;;;;;7.07;3.97;;;9.70;99.90;;;;;;12577125;23;20238;-83
2023/05/05 03:56:23;;;;;;;8.10;4.03;;;9.90;99.90;;;;;;12553209;23;20206;-83
2023/05/05 04:01:28;;;;;;;6.10;3.70;;;9.90;99.90;;;;;;12576725;23;20202;-83
2023/05/05 04:06:31;;;;;;;3.90;3.33;;;10.00;99.90;;;;;;12553197;23;20266;-83
2023/05/05 04:11:34;;;;;;;5.00;3.33;;;10.20;99.90;;;;;;12552767;23;20206;-83
2023/05/05 04:16:37;;;;;;;6.47;4.47;;;10.30;99.90;;;;;;12576438;23;20223;-83
2023/05/05 04:21:39;;;;;;;7.03;4.20;;;10.30;99.90;;;;;;12552881;23;20564;-83
2023/05/05 04:26:42;;;;;;;6.00;3.30;;;10.20;99.50;;;;;;12552450;23;20178;-83
2023/05/05 04:31:45;;;;;;;8.07;4.10;;;10.20;99.90;;;;;;12552678;23;20215;-83
2023/05/05 04:36:49;;;;;;;10.00;4.60;;;10.20;99.90;;;;;;12575644;23;20234;-83
2023/05/05 04:41:53;;;;;;;6.03;3.37;;;10.10;99.60;;;;;;12552301;23;20199;-83
2023/05/05 04:46:55;;;;;;;8.60;3.33;;;10.20;99.90;;;;;;12552047;23;20182;-83
2023/05/05 04:51:58;;;;;;;8.63;3.30;;;10.20;99.90;;;;;;12527620;23;20242;-83
2023/05/05 04:57:01;;;;;;;2.93;2.37;;;10.40;99.90;;;;;;12553694;23;20285;-83
2023/05/05 05:02:03;;;;;;;6.17;3.07;;;10.50;99.90;;;;;;12566248;23;20246;-83
2023/05/05 05:07:06;;;;;;;4.50;3.20;;;10.40;98.50;;;;;;12576209;23;20246;-83
2023/05/05 05:12:09;;;;;;;8.33;4.67;;;10.40;98.40;;;;;;12551403;23;20210;-83
2023/05/05 05:17:12;;;;;;;4.90;3.73;;;10.50;98.60;;;;;;12528931;23;20183;-83
2023/05/05 05:22:15;;;;;;;7.10;3.93;;;10.70;99.90;;;;;;12552014;23;20206;-83
2023/05/05 05:27:18;;;;;;;4.90;3.50;;;10.80;98.80;;;;;;12528196;23;20182;-83
2023/05/05 05:32:23;;;;;;;6.80;4.00;;;11.10;98.40;;;;;;12551993;23;20242;-83
2023/05/05 05:37:29;;;;;;;6.97;3.77;;;11.20;96.90;;;;;;12552135;23;20242;-83
2023/05/05 05:42:33;;;;;;;5.93;3.47;;;11.30;96.60;;;;;;12551880;23;20198;-83
2023/05/05 05:47:36;;;;;;;6.30;4.30;;;11.40;96.40;;;;;;12551956;23;20240;-83
2023/05/05 05:52:39;;;;;;;3.47;2.77;;;11.20;96.10;;;;;;12551444;23;20183;-83
2023/05/05 05:57:42;;;;;;;4.50;3.10;;;11.30;96.90;;;;;;12552050;23;20186;-83
2023/05/05 06:02:46;;;;;;;11.17;4.57;;;11.40;97.10;;;;;;12551395;23;20199;-83
2023/05/05 06:07:53;;;;;;;10.33;4.43;;;11.40;95.60;;;;;;12527131;23;20198;-83
2023/05/05 06:12:57;;;;;;;4.63;3.70;;;11.50;95.80;;;;;;12528097;23;20186;-83
2023/05/05 06:18:00;;;;;;;9.00;3.97;;;11.80;96.50;;;;;;12528510;23;20245;-83
2023/05/05 06:23:03;;;;;;;5.07;3.47;;;11.80;95.00;;;;;;12576771;23;20201;-83
2023/05/05 06:28:08;;;;;;;10.90;4.40;;;12.00;95.20;;;;;;12531811;23;20369;-83
2023/05/05 06:33:10;;;;;;;4.53;3.50;;;12.10;94.80;;;;;;12557575;23;20247;-83
2023/05/05 06:38:13;;;;;;;4.97;3.80;;;12.20;95.90;;;;;;12556163;23;20218;-83
2023/05/05 06:43:16;;;;;;;6.17;3.00;;;12.30;94.70;;;;;;12556143;23;20253;-83
2023/05/05 06:48:26;;;;;;;7.10;3.53;;;12.40;94.10;;;;;;12555162;23;20241;-83
2023/05/05 06:53:28;;;;;;;13.23;5.20;;;12.60;94.50;;;;;;12557356;23;20186;-83
2023/05/05 06:58:31;;;;;;;7.90;4.37;;;12.60;92.90;;;;;;12557702;23;20511;-83
2023/05/05 07:03:33;;;;;;;5.60;3.33;;;12.80;93.20;;;;;;12556953;23;20277;-83
2023/05/05 07:08:36;;;;;;;7.73;4.13;;;12.90;93.00;;;;;;12556788;23;20206;-83
2023/05/05 07:13:38;;;;;;;6.17;4.17;;;13.00;92.30;;;;;;12577888;23;20186;-83
2023/05/05 07:18:41;;;;;;;8.50;4.20;;;13.20;92.30;;;;;;12555795;23;20174;-83
2023/05/05 07:23:46;;;;;;;6.33;3.70;;;13.40;92.00;;;;;;12555267;23;20202;-83
2023/05/05 07:28:50;;;;;;;7.27;5.00;;;13.50;91.30;;;;;;12555056;23;20178;-83
2023/05/05 07:33:53;;;;;;;6.93;4.83;;;13.50;90.80;;;;;;12553715;23;20245;-83
2023/05/05 07:38:55;;;;;;;11.17;4.60;;;13.60;91.20;;;;;;12556566;23;20227;-83
2023/05/05 07:44:00;;;;;;;5.30;4.20;;;13.60;90.30;;;;;;12556393;23;20190;-83
2023/05/05 07:49:02;;;;;;;9.93;4.17;;;13.80;90.70;;;;;;12555491;23;20185;-83
2023/05/05 07:54:05;;;;;;;5.27;3.50;;;13.80;90.40;;;;;;12556649;23;20499;-83
2023/05/05 07:59:08;;;;;;;14.87;4.63;;;13.80;90.30;;;;;;12556125;23;20194;-83
2023/05/05 08:04:10;;;;;;;8.63;4.07;;;14.00;85.60;;;;;;12555550;23;20183;-83
2023/05/05 08:09:13;;;;;;;8.57;3.97;;;14.20;84.40;;;;;;12555265;23;20194;-83
2023/05/05 08:14:16;;;;;;;5.83;2.60;;;14.30;85.80;;;;;;12555675;23;20296;-83
2023/05/05 08:19:18;;;;;;;5.97;2.87;;;14.40;86.50;;;;;;12556081;23;20566;-83
2023/05/05 08:24:30;;;;;;;6.57;4.63;;;14.40;84.50;;;;;;12555574;23;20259;-83
2023/05/05 08:29:33;;;;;;;5.67;4.03;;;14.60;82.40;;;;;;12555730;23;20179;-83
2023/05/05 08:34:35;;;;;;;6.03;3.83;;;14.60;80.80;;;;;;12554572;23;20533;-83
2023/05/05 08:39:37;;;;;;;7.77;4.77;;;14.80;78.90;;;;;;12573127;23;20220;-83
2023/05/05 08:44:40;;;;;;;4.90;4.03;;;15.00;78.00;;;;;;12554617;23;20588;-83
2023/05/05 08:49:46;;;;;;;8.50;3.23;;;15.10;78.10;;;;;;12576592;23;20182;-83
2023/05/05 08:54:59;;;;;;;6.40;4.23;;;15.30;76.90;;;;;;12554235;23;20506;-83
2023/05/05 09:00:03;;;;;;;5.23;3.17;;;15.40;77.20;;;;;;12571998;23;20516;-83
2023/05/05 09:05:06;;;;;;;10.70;6.30;;;15.40;71.90;;;;;;12553781;23;20199;-83
2023/05/05 09:10:10;;;;;;;8.20;3.33;;;15.40;72.90;;;;;;12554021;23;20259;-83
2023/05/05 09:15:14;;;;;;;5.43;3.53;;;15.60;70.00;;;;;;12553774;23;20183;-83
2023/05/05 09:20:16;;;;;;;7.73;4.90;;;16.00;80.00;;;;;;12554039;23;20727;-83
2023/05/05 09:25:19;;;;;;;5.90;4.27;;;15.80;74.20;;;;;;12553746;23;20569;-83
2023/05/05 09:30:25;;;;;;;7.03;4.17;;;16.00;69.90;;;;;;12554284;23;20550;-83
2023/05/05 09:35:52;;;;;;;6.17;3.07;;;16.20;66.40;;;;;;12553361;23;20238;-83
2023/05/05 09:40:54;;;;;;;11.47;5.77;;;16.50;64.90;;;;;;12553576;23;20533;-83
2023/05/05 09:46:07;;;;;;;11.93;6.77;;;16.50;62.40;;;;;;12553199;23;20186;-83
2023/05/05 09:51:11;;;;;;;8.90;4.30;;;16.60;62.10;;;;;;12554060;23;20562;-83
2023/05/05 09:56:13;;;;;;;8.47;6.27;;;16.60;62.50;;;;;;12569486;23;20170;-83
2023/05/05 10:01:22;;;;;;;10.87;7.23;;;16.80;61.90;;;;;;12557490;23;20186;-83
2023/05/05 10:06:47;;;;;;;6.50;4.77;;;16.90;64.20;;;;;;12560139;23;20487;-83
2023/05/05 10:11:50;;;;;;;6.83;3.03;;;16.90;61.20;;;;;;12563052;23;20547;-83
2023/05/05 10:16:54;;;;;;;10.47;6.40;;;17.10;60.00;;;;;;12535998;23;20277;-83
2023/05/05 10:22:02;;;;;;;16.43;7.10;;;17.10;57.90;;;;;;12560656;23;20569;-83
2023/05/05 10:27:16;;;;;;;6.70;5.03;;;17.20;60.70;;;;;;12560338;23;20254;-83
2023/05/05 10:32:30;;;;;;;3.07;2.33;;;17.10;57.10;;;;;;12561489;23;20190;-83
2023/05/05 10:37:37;;;;;;;4.47;3.93;;;17.40;60.20;;;;;;12558932;23;20182;-83
2023/05/05 10:42:40;;;;;;;7.83;4.97;;;17.20;54.70;;;;;;12560268;23;20673;-83
2023/05/05 10:47:45;;;;;;;10.17;6.43;;;17.10;52.40;;;;;;12559644;23;20234;-83
2023/05/05 10:53:10;;;;;;;10.10;5.97;;;17.00;52.20;;;;;;12558569;23;20170;-83
2023/05/05 10:58:30;;;;;;;3.57;2.70;;;17.00;54.20;;;;;;12559643;23;20512;-83
2023/05/05 11:03:33;;;;;;;13.63;6.17;;;16.80;56.80;;;;;;12559362;23;20194;-83
2023/05/05 11:08:43;;;;;;;12.83;7.43;;;16.60;54.80;;;;;;12558249;23;20203;-83
2023/05/05 11:14:13;;;;;;;10.03;5.87;;;16.50;59.10;;;;;;12577897;23;20182;-83
2023/05/05 11:19:44;;;;;;;5.40;4.00;;;16.50;56.50;;;;;;12556089;23;20190;-83
2023/05/05 11:24:47;;;;;;;21.17;6.60;;;16.50;59.60;;;;;;12556473;23;20190;-83
2023/05/05 11:30:05;;;;;;;13.13;6.80;;;16.50;61.10;;;;;;12556508;23;20191;-83
2023/05/05 11:35:08;;;;;;;13.67;5.97;;;16.70;59.90;;;;;;12555659;23;20186;-83
2023/05/05 11:40:22;;;;;;;16.70;6.93;;;16.80;61.40;;;;;;12555532;23;20249;-83
2023/05/05 11:45:25;;;;;;;5.53;3.33;;;16.90;59.20;;;;;;12556567;23;20202;-83
2023/05/05 11:50:32;;;;;;;9.73;5.83;;;17.00;57.80;;;;;;12555083;23;20238;-83
2023/05/05 11:55:34;;;;;;;14.73;5.87;;;16.90;54.90;;;;;;12573190;23;20222;-83
2023/05/05 12:00:37;;;;;;;11.37;4.30;;;16.90;56.50;;;;;;12554883;23;20521;-83
2023/05/05 12:05:40;;;;;;;15.47;5.00;;;16.90;54.60;;;;;;12553843;23;20198;-83
2023/05/05 12:10:42;;;;;;;5.70;2.80;;;16.70;55.30;;;;;;12576993;23;20202;-83
2023/05/05 12:15:45;;;;;;;4.63;4.17;;;16.60;55.30;;;;;;12555351;23;20170;-83
2023/05/05 12:20:48;;;;;;;12.60;6.10;;;16.70;56.70;;;;;;12554815;23;20174;-83
2023/05/05 12:25:50;;;;;;;11.87;5.73;;;16.70;56.00;;;;;;12555106;23;20191;-83
2023/05/05 12:30:57;;;;;;;7.53;4.87;;;16.70;56.10;;;;;;12555522;23;20178;-83
2023/05/05 12:36:00;;;;;;;10.67;2.47;;;16.70;54.90;;;;;;12529178;23;20543;-83
2023/05/05 12:41:03;;;;;;;11.37;5.60;;;16.70;54.70;;;;;;12577313;23;20238;-83
2023/05/05 12:46:10;;;;;;;9.70;4.43;;;16.70;55.00;;;;;;12554762;23;20262;-83
2023/05/05 12:51:22;;;;;;;4.43;3.60;;;16.80;54.90;;;;;;12552358;23;20182;-83
2023/05/05 12:56:39;;;;;;;7.10;5.43;;;16.90;53.30;;;;;;12554461;23;20512;-83
2023/05/05 13:01:52;;;;;;;8.50;4.33;;;17.10;53.30;;;;;;12554012;23;20645;-83
2023/05/05 13:07:15;;;;;;;15.87;6.17;;;17.10;49.40;;;;;;12569584;23;20187;-83
2023/05/05 13:12:18;;;;;;;8.37;3.27;;;17.10;51.10;;;;;;12553731;23;20201;-83
2023/05/05 13:17:20;;;;;;;8.70;4.93;;;17.10;49.70;;;;;;12567716;23;20230;-83
2023/05/05 13:22:23;;;;;;;10.87;5.20;;;17.10;52.80;;;;;;12554252;23;20245;-83
2023/05/05 13:27:26;;;;;;;9.23;3.97;;;17.10;52.90;;;;;;12555125;23;20214;-83
2023/05/05 13:32:28;;;;;;;4.53;3.33;;;17.00;51.10;;;;;;12553638;23;20201;-83
2023/05/05 13:37:31;;;;;;;3.57;2.47;;;17.10;51.50;;;;;;12554243;23;20241;-83
2023/05/05 13:42:33;;;;;;;8.67;5.27;;;17.00;51.00;;;;;;12553282;23;20195;-83
2023/05/05 13:47:36;;;;;;;12.27;7.47;;;17.00;53.00;;;;;;12551749;23;20182;-83
2023/05/05 13:52:38;;;;;;;4.30;2.90;;;17.10;52.10;;;;;;12553652;23;20182;-83
2023/05/05 13:57:42;;;;;;;9.30;7.33;;;16.90;52.00;;;;;;12554533;23;20220;-83
2023/05/05 14:02:44;;;;;;;13.10;4.50;;;16.70;52.70;;;;;;12553407;23;20198;-83
2023/05/05 14:07:46;;;;;;;3.33;3.00;;;16.70;52.20;;;;;;12553405;23;20257;-83
2023/05/05 14:12:49;;;;;;;6.03;4.37;;;16.80;55.20;;;;;;12552890;23;20182;-83
2023/05/05 14:17:51;;;;;;;15.50;5.57;;;16.80;53.20;;;;;;12553525;23;20206;-83
2023/05/05 14:22:55;;;;;;;11.50;7.13;;;16.90;52.90;;;;;;12552323;23;20510;-83
2023/05/05 14:27:57;;;;;;;8.70;3.87;;;16.80;51.90;;;;;;12553097;23;20167;-83
2023/05/05 14:33:00;;;;;;;29.63;6.77;;;16.70;50.90;;;;;;12550433;23;20186;-83
2023/05/05 14:38:02;;;;;;;7.87;3.70;;;16.60;50.20;;;;;;12553445;23;20171;-83
2023/05/05 14:43:05;;;;;;;7.53;3.63;;;16.80;51.50;;;;;;12553540;23;20550;-83
2023/05/05 14:48:08;;;;;;;12.23;5.67;;;16.80;53.40;;;;;;12557636;23;20186;-83
2023/05/05 14:53:10;;;;;;;7.80;5.20;;;16.80;50.70;;;;;;12557510;23;20182;-83
2023/05/05 14:58:13;;;;;;;12.53;5.53;;;16.90;51.40;;;;;;12554736;23;20238;-83
2023/05/05 15:03:15;;;;;;;5.53;3.33;;;16.80;50.90;;;;;;12556605;23;20586;-83
2023/05/05 15:08:18;;;;;;;7.27;4.50;;;16.60;53.30;;;;;;12556901;23;20196;-83
2023/05/05 15:13:20;;;;;;;10.57;4.50;;;16.40;50.50;;;;;;12556543;23;20234;-83
2023/05/05 15:18:23;;;;;;;4.63;3.30;;;16.30;52.60;;;;;;12556536;23;20634;-83
2023/05/05 15:23:26;;;;;;;10.43;5.07;;;16.40;54.50;;;;;;12556233;23;20245;-83
2023/05/05 15:28:28;;;;;;;12.03;4.40;;;16.40;49.30;;;;;;12556960;23;20242;-83
2023/05/05 15:33:31;;;;;;;6.50;4.03;;;16.30;52.90;;;;;;12554289;23;20242;-83
2023/05/05 15:38:41;;;;;;;4.33;2.60;;;16.30;50.50;;;;;;12555082;23;20212;-83
2023/05/05 15:43:44;;;;;;;4.17;2.30;;;16.40;51.90;;;;;;12557243;23;20235;-83
2023/05/05 15:48:46;;;;;;;5.57;3.43;;;16.40;52.60;;;;;;12556420;23;20199;-83
2023/05/05 15:53:51;;;;;;;4.63;3.10;;;16.40;50.30;;;;;;12556790;23;20182;-83
2023/05/05 15:58:53;;;;;;;7.30;3.20;;;16.20;49.60;;;;;;12555303;23;20581;-83
2023/05/05 16:03:56;;;;;;;10.03;4.43;;;16.10;51.40;;;;;;12555541;23;20198;-83
2023/05/05 16:08:59;;;;;;;4.20;3.10;;;16.00;46.80;;;;;;12553701;23;20556;-83
2023/05/05 16:14:02;;;;;;;6.33;3.20;;;15.90;52.30;;;;;;12555372;23;20198;-83
2023/05/05 16:19:05;;;;;;;8.23;3.73;;;15.80;49.90;;;;;;12553381;23;20524;-83
2023/05/05 16:24:07;;;;;;;5.43;3.03;;;15.80;53.00;;;;;;12555466;23;20261;-83
2023/05/05 16:29:10;;;;;;;2.67;2.20;;;15.80;54.70;;;;;;12553873;23;20198;-83
2023/05/05 16:34:13;;;;;;;4.83;2.70;;;15.70;55.50;;;;;;12555153;23;20522;-83
2023/05/05 16:39:16;;;;;;;4.50;3.53;;;15.60;50.60;;;;;;12555189;23;20183;-83
2023/05/05 16:44:18;;;;;;;6.90;2.67;;;15.60;47.40;;;;;;12555281;23;20202;-83
2023/05/05 16:49:22;;;;;;;9.80;4.43;;;15.50;48.80;;;;;;12554689;23;20183;-83
2023/05/05 16:54:25;;;;;;;11.37;3.83;;;15.40;49.80;;;;;;12552766;23;20422;-83
2023/05/05 16:59:27;;;;;;;8.67;4.03;;;14.90;51.10;;;;;;12554192;23;20506;-83
2023/05/05 17:04:32;;;;;;;4.40;2.40;;;14.70;49.90;;;;;;12554370;23;20182;-83
2023/05/05 17:09:35;;;;;;;12.60;4.10;;;14.70;56.40;;;;;;12553096;23;20250;-83
2023/05/05 17:14:38;;;;;;;3.90;2.87;;;14.60;50.00;;;;;;12554231;23;20687;-83
2023/05/05 17:19:41;;;;;;;7.33;2.87;;;14.60;54.90;;;;;;12554322;23;20186;-83
2023/05/05 17:24:44;;;;;;;6.97;2.73;;;14.70;55.40;;;;;;12553971;23;20246;-83
2023/05/05 17:29:46;;;;;;;18.10;11.30;;;14.60;54.00;;;;;;12527646;23;20179;-83
2023/05/05 17:34:49;;;;;;;11.30;5.17;;;14.40;51.80;;;;;;12553681;23;20245;-83
2023/05/05 17:39:51;;;;;;;14.20;3.57;;;14.30;54.10;;;;;;12555271;23;20186;-83
2023/05/05 17:44:53;;;;;;;10.53;4.70;;;14.10;54.10;;;;;;12570205;23;20194;-83
2023/05/05 17:49:56;;;;;;;4.90;3.20;;;13.80;55.70;;;;;;12551456;23;20182;-83
2023/05/05 17:54:59;;;;;;;8.07;4.60;;;13.70;56.40;;;;;;12553661;23;20171;-83
2023/05/05 18:11:41;;;;;;;4.87;3.40;;;13.30;55.30;;;;;;12843772;23;20273;-83
2023/05/05 18:16:48;;;;;;;8.93;4.40;;;13.10;58.10;;;;;;12848603;23;20587;-82
2023/05/05 18:21:53;;;;;;;10.10;5.63;;;12.90;58.10;;;;;;12851750;23;20194;-83
2023/05/05 18:26:55;;;;;;;7.17;4.33;;;12.60;58.20;;;;;;12872747;23;20191;-82
2023/05/05 18:31:58;;;;;;;5.37;4.07;;;12.10;61.60;;;;;;12872590;23;20198;-82
2023/05/05 18:37:01;;;;;;;11.70;4.10;;;12.10;72.90;;;;;;12855396;23;20249;-83
2023/05/05 18:42:04;;;;;;;5.97;4.77;;;11.80;68.50;;;;;;12855555;23;20213;-83
2023/05/05 18:47:06;;;;;;;5.93;3.90;;;11.90;72.00;;;;;;12847074;23;20187;-82
2023/05/05 18:52:09;;;;;;;9.17;4.27;;;12.10;73.20;;;;;;12855552;23;20253;-83
2023/05/05 18:57:12;;;;;;;9.83;4.20;;;11.90;72.90;;;;;;12855192;23;20179;-83
2023/05/05 19:02:15;;;;;;;5.50;3.83;;;12.00;76.60;;;;;;12854852;23;20517;-82
2023/05/05 19:07:18;;;;;;;7.47;3.93;;;12.00;77.50;;;;;;12854448;23;20539;-82
2023/05/05 19:12:36;;;;;;;5.63;4.83;;;12.10;77.60;;;;;;12855341;23;20246;-82
2023/05/05 19:17:39;;;;;;;11.57;4.20;;;12.00;77.90;;;;;;12854702;23;20549;-82
2023/05/05 19:22:41;;;;;;;6.17;4.97;;;12.10;81.40;;;;;;12871357;23;20287;-82
2023/05/05 19:27:44;;;;;;;16.83;4.80;;;12.00;80.60;;;;;;12828812;23;20233;-82
2023/05/05 19:32:46;;;;;;;19.30;6.80;;;12.10;82.70;;;;;;12853447;23;20548;-82
2023/05/05 19:37:49;;;;;;;8.60;5.13;;;11.90;81.10;;;;;;12852661;23;20518;-82
2023/05/05 19:42:52;;;;;;;10.40;4.93;;;11.90;82.10;;;;;;12853622;23;20183;-83
2023/05/05 19:47:54;;;;;;;9.27;4.83;;;11.80;83.30;;;;;;12853146;23;21003;-83
2023/05/05 19:52:57;;;;;;;6.60;4.73;;;11.60;84.10;;;;;;12853735;23;20249;-83
2023/05/05 19:57:59;;;;;;;5.40;4.60;;;11.60;84.10;;;;;;12826186;23;20171;-83
2023/05/05 20:03:02;;;;;;;5.10;3.57;;;11.40;86.10;;;;;;12855031;23;20171;-83
2023/05/05 20:08:05;;;;;;;5.97;4.30;;;11.20;87.60;;;;;;12853423;23;20192;-84
2023/05/05 20:13:07;;;;;;;12.17;4.93;;;11.20;90.20;;;;;;12827115;23;20183;-83
2023/05/05 20:18:10;;;;;;;9.13;5.03;;;11.20;90.20;;;;;;12853424;23;20242;-82
2023/05/05 20:23:12;;;;;;;5.17;3.73;;;11.30;90.00;;;;;;12851337;23;20179;-83
2023/05/05 20:28:15;;;;;;;5.47;3.07;;;11.20;90.20;;;;;;12825738;23;20276;-83
2023/05/05 20:33:18;;;;;;;5.40;3.97;;;11.30;93.00;;;;;;12851765;23;20163;-83
2023/05/05 20:38:20;;;;;;;5.93;3.40;;;11.30;91.30;;;;;;12849148;23;20440;-83
2023/05/05 20:43:23;;;;;;;7.27;4.07;;;11.40;91.10;;;;;;12849749;23;20183;-83
2023/05/05 20:48:26;;;;;;;7.70;4.60;;;11.20;90.90;;;;;;12848349;23;20230;-83
2023/05/05 20:53:28;;;;;;;7.47;4.57;;;11.30;90.50;;;;;;12848710;23;20182;-83
2023/05/05 20:58:30;;;;;;;4.07;3.13;;;11.20;91.00;;;;;;12848556;23;20229;-83
2023/05/05 21:03:34;;;;;;;5.37;4.37;;;11.20;92.00;;;;;;12848923;23;20506;-83
2023/05/05 21:08:38;;;;;;;8.87;4.17;;;11.30;92.10;;;;;;12846712;23;20233;-83
2023/05/05 21:13:40;;;;;;;7.10;3.73;;;11.10;92.10;;;;;;12850705;23;20163;-82
2023/05/05 21:18:45;;;;;;;7.27;4.50;;;11.20;93.40;;;;;;12850390;23;20182;-83
2023/05/05 21:23:48;;;;;;;6.03;3.60;;;11.00;91.70;;;;;;12850520;23;20225;-83
2023/05/05 21:28:51;;;;;;;8.43;4.53;;;10.80;93.00;;;;;;12850983;23;20264;-83
2023/05/05 21:33:53;;;;;;;7.00;4.97;;;10.80;93.10;;;;;;12824797;23;20163;-83
2023/05/05 21:38:56;;;;;;;5.30;4.13;;;10.90;92.80;;;;;;12819174;23;20538;-83
2023/05/05 21:44:01;;;;;;;10.23;3.90;;;10.80;93.70;;;;;;12848483;23;20182;-83
2023/05/05 21:49:14;;;;;;;7.20;5.20;;;10.50;93.90;;;;;;12851586;23;20179;-83
2023/05/05 21:54:17;;;;;;;13.17;6.70;;;10.40;95.50;;;;;;12832920;23;20217;-82
2023/05/05 21:59:20;;;;;;;9.17;4.93;;;10.20;96.30;;;;;;12848400;23;20175;-82
2023/05/05 22:04:22;;;;;;;8.73;4.50;;;10.00;97.70;;;;;;12848849;23;20278;-82
2023/05/05 22:09:25;;;;;;;9.43;6.10;;;9.90;99.10;;;;;;12849754;23;20513;-83
2023/05/05 22:14:27;;;;;;;9.87;5.63;;;9.80;98.20;;;;;;12822775;23;20187;-82
2023/05/05 22:19:30;;;;;;;9.57;5.23;;;9.60;98.50;;;;;;12850005;23;20700;-82
2023/05/05 22:24:32;;;;;;;9.10;5.57;;;9.60;99.50;;;;;;12847152;23;20195;-82
2023/05/05 22:29:35;;;;;;;6.70;4.83;;;9.50;99.50;;;;;;12848716;23;20205;-83
2023/05/05 22:34:38;;;;;;;9.70;4.90;;;9.40;99.60;;;;;;12823989;23;20251;-83
2023/05/05 22:39:42;;;;;;;9.10;4.80;;;9.30;99.90;;;;;;12847792;23;20184;-82
2023/05/05 22:44:44;;;;;;;6.13;4.60;;;9.40;99.90;;;;;;12848697;23;20187;-82
2023/05/05 22:49:47;;;;;;;7.13;4.83;;;9.30;99.90;;;;;;12846614;23;20179;-83
2023/05/05 22:54:49;;;;;;;6.10;5.17;;;9.20;99.90;;;;;;12846862;23;20187;-82
2023/05/05 22:59:52;;;;;;;12.50;6.57;;;9.20;99.90;;;;;;12845677;23;20183;-83
2023/05/05 23:04:54;;;;;;;11.20;6.23;;;9.20;99.90;;;;;;12822412;23;20187;-83
2023/05/05 23:09:57;;;;;;;12.03;6.47;;;9.20;99.90;;;;;;12824653;23;20272;-82
2023/05/05 23:14:59;;;;;;;11.23;6.27;;;9.30;99.90;;;;;;12851058;23;20576;-83
2023/05/05 23:20:03;;;;;;;4.93;4.00;;;9.40;99.90;;;;;;12851322;23;20221;-82
2023/05/05 23:25:06;;;;;;;6.37;4.43;;;9.50;99.90;;;;;;12822086;23;20310;-83
2023/05/05 23:30:11;;;;;;;5.73;3.83;;;9.50;99.90;;;;;;12867778;23;20167;-83
2023/05/05 23:35:13;;;;;;;10.83;6.70;;;9.70;99.90;;;;;;12850141;23;20638;-82
2023/05/05 23:40:16;;;;;;;6.70;4.30;;;9.60;99.90;;;;;;12852835;23;20654;-83
2023/05/05 23:45:19;;;;;;;15.30;7.47;;;9.60;99.90;;;;;;12828362;23;20265;-83
2023/05/05 23:50:21;;;;;;;13.77;7.07;;;9.70;99.90;;;;;;12854318;23;20704;-83
2023/05/05 23:55:24;;;;;;;10.27;7.23;;;9.60;99.90;;;;;;12853316;23;20186;-83
